sensor_id;sensor_type;location;lat;lon;timestamp;temperature;humidity
14993;DHT22;7592;51.088;13.732;2023-04-06T00:00:13;1.80;99.90
14993;DHT22;7592;51.088;13.732;2023-04-06T00:05:06;1.70;99.90
14993;DHT22;7592;51.088;13.732;2023-04-06T00:09:58;1.60;99.90
14993;DHT22;7592;51.088;13.732;2023-04-06T00:14:50;1.50;99.90
14993;DHT22;7592;51.088;13.732;2023-04-06T00:19:42;1.60;99.90
14993;DHT22;7592;51.088;13.732;2023-04-06T00:24:34;1.60;99.90
14993;DHT22;7592;51.088;13.732;2023-04-06T00:29:27;1.50;99.90
14993;DHT22;7592;51.088;13.732;2023-04-06T00:34:19;1.40;99.90
14993;DHT22;7592;51.088;13.732;2023-04-06T00:39:11;1.30;99.90
14993;DHT22;7592;51.088;13.732;2023-04-06T00:44:03;1.40;99.90
14993;DHT22;7592;51.088;13.732;2023-04-06T00:48:56;1.40;99.90
14993;DHT22;7592;51.088;13.732;2023-04-06T00:53:49;1.30;99.90
14993;DHT22;7592;51.088;13.732;2023-04-06T00:58:41;1.30;99.90
14993;DHT22;7592;51.088;13.732;2023-04-06T01:03:34;1.30;99.90
14993;DHT22;7592;51.088;13.732;2023-04-06T01:20:16;1.40;99.90
14993;DHT22;7592;51.088;13.732;2023-04-06T01:25:38;1.40;99.90
14993;DHT22;7592;51.088;13.732;2023-04-06T01:30:49;1.50;99.90
14993;DHT22;7592;51.088;13.732;2023-04-06T01:36:00;1.40;99.90
14993;DHT22;7592;51.088;13.732;2023-04-06T01:40:53;1.40;99.90
14993;DHT22;7592;51.088;13.732;2023-04-06T01:45:48;1.40;99.90
14993;DHT22;7592;51.088;13.732;2023-04-06T01:50:44;1.30;99.90
14993;DHT22;7592;51.088;13.732;2023-04-06T01:55:43;1.30;99.90
14993;DHT22;7592;51.088;13.732;2023-04-06T02:00:52;1.40;99.90
14993;DHT22;7592;51.088;13.732;2023-04-06T02:05:45;1.50;99.90
14993;DHT22;7592;51.088;13.732;2023-04-06T02:10:46;1.60;99.90
14993;DHT22;7592;51.088;13.732;2023-04-06T02:15:50;1.70;99.90
14993;DHT22;7592;51.088;13.732;2023-04-06T02:20:42;1.70;99.90
14993;DHT22;7592;51.088;13.732;2023-04-06T02:25:36;1.60;99.90
14993;DHT22;7592;51.088;13.732;2023-04-06T02:30:29;1.50;99.90
14993;DHT22;7592;51.088;13.732;2023-04-06T02:35:21;1.40;99.90
14993;DHT22;7592;51.088;13.732;2023-04-06T02:40:18;1.30;99.90
14993;DHT22;7592;51.088;13.732;2023-04-06T02:45:11;1.20;99.90
14993;DHT22;7592;51.088;13.732;2023-04-06T02:50:08;1.00;99.90
14993;DHT22;7592;51.088;13.732;2023-04-06T02:55:10;0.80;99.90
14993;DHT22;7592;51.088;13.732;2023-04-06T03:00:03;0.70;99.90
14993;DHT22;7592;51.088;13.732;2023-04-06T03:05:03;0.60;99.90
14993;DHT22;7592;51.088;13.732;2023-04-06T03:10:01;0.40;99.90
14993;DHT22;7592;51.088;13.732;2023-04-06T03:14:55;0.40;99.90
14993;DHT22;7592;51.088;13.732;2023-04-06T03:19:48;0.30;99.90
14993;DHT22;7592;51.088;13.732;2023-04-06T03:24:40;0.40;99.90
14993;DHT22;7592;51.088;13.732;2023-04-06T03:29:32;0.40;99.90
14993;DHT22;7592;51.088;13.732;2023-04-06T03:34:25;0.50;99.90
14993;DHT22;7592;51.088;13.732;2023-04-06T03:39:17;0.40;99.90
14993;DHT22;7592;51.088;13.732;2023-04-06T03:44:10;0.30;99.90
14993;DHT22;7592;51.088;13.732;2023-04-06T03:49:02;0.10;99.90
14993;DHT22;7592;51.088;13.732;2023-04-06T03:53:54;0.00;99.90
14993;DHT22;7592;51.088;13.732;2023-04-06T03:58:46;0.00;99.90
14993;DHT22;7592;51.088;13.732;2023-04-06T04:03:44;0.00;99.90
14993;DHT22;7592;51.088;13.732;2023-04-06T04:08:38;0.10;99.90
14993;DHT22;7592;51.088;13.732;2023-04-06T04:13:32;0.10;99.90
14993;DHT22;7592;51.088;13.732;2023-04-06T04:18:26;0.00;99.90
14993;DHT22;7592;51.088;13.732;2023-04-06T04:23:18;-0.10;99.90
14993;DHT22;7592;51.088;13.732;2023-04-06T04:28:10;-0.10;99.90
14993;DHT22;7592;51.088;13.732;2023-04-06T04:33:04;-0.10;99.90
14993;DHT22;7592;51.088;13.732;2023-04-06T04:37:57;-0.10;99.90
14993;DHT22;7592;51.088;13.732;2023-04-06T04:42:50;0.00;99.90
14993;DHT22;7592;51.088;13.732;2023-04-06T04:47:52;0.10;99.90
14993;DHT22;7592;51.088;13.732;2023-04-06T04:52:47;0.20;99.90
14993;DHT22;7592;51.088;13.732;2023-04-06T04:57:44;0.40;99.90
14993;DHT22;7592;51.088;13.732;2023-04-06T05:02:37;0.50;99.90
14993;DHT22;7592;51.088;13.732;2023-04-06T05:07:39;0.60;99.90
14993;DHT22;7592;51.088;13.732;2023-04-06T05:12:37;0.70;99.90
14993;DHT22;7592;51.088;13.732;2023-04-06T05:17:33;0.80;99.90
14993;DHT22;7592;51.088;13.732;2023-04-06T05:22:26;0.90;99.90
14993;DHT22;7592;51.088;13.732;2023-04-06T05:27:27;1.20;99.90
14993;DHT22;7592;51.088;13.732;2023-04-06T05:32:20;1.30;99.90
14993;DHT22;7592;51.088;13.732;2023-04-06T05:37:15;1.50;99.90
14993;DHT22;7592;51.088;13.732;2023-04-06T05:42:08;1.70;99.90
14993;DHT22;7592;51.088;13.732;2023-04-06T05:47:19;1.90;99.90
14993;DHT22;7592;51.088;13.732;2023-04-06T05:52:17;2.10;99.90
14993;DHT22;7592;51.088;13.732;2023-04-06T05:57:12;2.30;99.90
14993;DHT22;7592;51.088;13.732;2023-04-06T06:02:04;2.50;99.90
14993;DHT22;7592;51.088;13.732;2023-04-06T06:07:03;3.90;99.90
14993;DHT22;7592;51.088;13.732;2023-04-06T06:12:07;4.10;99.90
14993;DHT22;7592;51.088;13.732;2023-04-06T06:16:59;9.40;99.90
14993;DHT22;7592;51.088;13.732;2023-04-06T06:21:52;11.90;99.90
14993;DHT22;7592;51.088;13.732;2023-04-06T06:26:45;12.80;98.00
14993;DHT22;7592;51.088;13.732;2023-04-06T06:31:38;16.70;81.80
14993;DHT22;7592;51.088;13.732;2023-04-06T06:36:31;18.80;67.50
14993;DHT22;7592;51.088;13.732;2023-04-06T06:41:25;20.20;60.00
14993;DHT22;7592;51.088;13.732;2023-04-06T06:46:20;20.90;56.20
14993;DHT22;7592;51.088;13.732;2023-04-06T06:51:12;22.00;54.70
14993;DHT22;7592;51.088;13.732;2023-04-06T06:56:05;22.50;51.90
14993;DHT22;7592;51.088;13.732;2023-04-06T07:00:58;22.90;50.30
14993;DHT22;7592;51.088;13.732;2023-04-06T07:05:55;23.50;49.80
14993;DHT22;7592;51.088;13.732;2023-04-06T07:10:50;25.20;47.20
14993;DHT22;7592;51.088;13.732;2023-04-06T07:15:44;25.70;46.40
14993;DHT22;7592;51.088;13.732;2023-04-06T07:20:36;26.60;45.00
14993;DHT22;7592;51.088;13.732;2023-04-06T07:25:29;24.90;45.00
14993;DHT22;7592;51.088;13.732;2023-04-06T07:30:21;23.80;46.00
14993;DHT22;7592;51.088;13.732;2023-04-06T07:35:14;23.80;46.40
14993;DHT22;7592;51.088;13.732;2023-04-06T07:40:09;23.90;46.30
14993;DHT22;7592;51.088;13.732;2023-04-06T07:45:02;24.00;46.10
14993;DHT22;7592;51.088;13.732;2023-04-06T07:49:56;24.40;45.80
14993;DHT22;7592;51.088;13.732;2023-04-06T07:54:49;25.60;44.00
14993;DHT22;7592;51.088;13.732;2023-04-06T07:59:41;26.30;43.50
14993;DHT22;7592;51.088;13.732;2023-04-06T08:04:35;27.10;43.40
14993;DHT22;7592;51.088;13.732;2023-04-06T08:09:27;27.70;41.30
14993;DHT22;7592;51.088;13.732;2023-04-06T08:14:19;27.30;41.30
14993;DHT22;7592;51.088;13.732;2023-04-06T08:19:12;28.10;40.10
14993;DHT22;7592;51.088;13.732;2023-04-06T08:24:05;27.50;40.40
14993;DHT22;7592;51.088;13.732;2023-04-06T08:28:58;27.50;40.10
14993;DHT22;7592;51.088;13.732;2023-04-06T08:33:51;27.20;38.30
14993;DHT22;7592;51.088;13.732;2023-04-06T08:38:43;25.30;40.40
14993;DHT22;7592;51.088;13.732;2023-04-06T08:43:43;25.20;39.50
14993;DHT22;7592;51.088;13.732;2023-04-06T08:48:36;24.40;39.60
14993;DHT22;7592;51.088;13.732;2023-04-06T08:53:29;22.20;41.30
14993;DHT22;7592;51.088;13.732;2023-04-06T08:58:22;22.40;40.90
14993;DHT22;7592;51.088;13.732;2023-04-06T09:03:30;22.50;40.10
14993;DHT22;7592;51.088;13.732;2023-04-06T09:08:23;20.80;41.40
14993;DHT22;7592;51.088;13.732;2023-04-06T09:13:17;17.70;44.60
14993;DHT22;7592;51.088;13.732;2023-04-06T09:18:09;18.00;46.50
14993;DHT22;7592;51.088;13.732;2023-04-06T09:23:01;19.40;42.50
14993;DHT22;7592;51.088;13.732;2023-04-06T09:28:04;21.50;40.60
14993;DHT22;7592;51.088;13.732;2023-04-06T09:32:58;22.20;40.60
14993;DHT22;7592;51.088;13.732;2023-04-06T09:37:52;24.90;37.40
14993;DHT22;7592;51.088;13.732;2023-04-06T09:42:46;28.70;34.90
14993;DHT22;7592;51.088;13.732;2023-04-06T09:47:41;31.30;33.20
14993;DHT22;7592;51.088;13.732;2023-04-06T09:52:39;30.60;31.90
14993;DHT22;7592;51.088;13.732;2023-04-06T09:57:45;29.50;32.80
14993;DHT22;7592;51.088;13.732;2023-04-06T10:02:47;30.40;32.60
14993;DHT22;7592;51.088;13.732;2023-04-06T10:07:42;29.50;31.30
14993;DHT22;7592;51.088;13.732;2023-04-06T10:12:51;30.20;31.60
14993;DHT22;7592;51.088;13.732;2023-04-06T10:17:44;29.10;31.60
14993;DHT22;7592;51.088;13.732;2023-04-06T10:22:45;29.40;32.00
14993;DHT22;7592;51.088;13.732;2023-04-06T10:27:44;28.50;31.60
14993;DHT22;7592;51.088;13.732;2023-04-06T10:32:38;31.60;30.70
14993;DHT22;7592;51.088;13.732;2023-04-06T10:37:52;30.30;31.00
14993;DHT22;7592;51.088;13.732;2023-04-06T10:42:45;26.00;34.40
14993;DHT22;7592;51.088;13.732;2023-04-06T10:47:40;24.00;36.60
14993;DHT22;7592;51.088;13.732;2023-04-06T10:52:33;22.40;37.70
14993;DHT22;7592;51.088;13.732;2023-04-06T10:57:29;20.10;39.70
14993;DHT22;7592;51.088;13.732;2023-04-06T11:02:22;18.30;42.20
14993;DHT22;7592;51.088;13.732;2023-04-06T11:07:23;17.20;42.80
14993;DHT22;7592;51.088;13.732;2023-04-06T11:12:28;19.10;41.10
14993;DHT22;7592;51.088;13.732;2023-04-06T11:17:28;21.50;39.40
14993;DHT22;7592;51.088;13.732;2023-04-06T11:22:20;25.40;34.90
14993;DHT22;7592;51.088;13.732;2023-04-06T11:27:14;26.60;34.10
14993;DHT22;7592;51.088;13.732;2023-04-06T11:32:08;24.40;33.60
14993;DHT22;7592;51.088;13.732;2023-04-06T11:37:02;24.90;33.50
14993;DHT22;7592;51.088;13.732;2023-04-06T11:42:00;25.00;32.60
14993;DHT22;7592;51.088;13.732;2023-04-06T11:46:53;24.70;33.70
14993;DHT22;7592;51.088;13.732;2023-04-06T11:51:46;23.30;34.60
14993;DHT22;7592;51.088;13.732;2023-04-06T11:56:38;21.60;37.30
14993;DHT22;7592;51.088;13.732;2023-04-06T12:01:30;19.30;39.30
14993;DHT22;7592;51.088;13.732;2023-04-06T12:06:27;18.30;40.80
14993;DHT22;7592;51.088;13.732;2023-04-06T12:11:19;17.70;41.80
14993;DHT22;7592;51.088;13.732;2023-04-06T12:16:13;16.90;42.40
14993;DHT22;7592;51.088;13.732;2023-04-06T12:21:06;16.10;44.60
14993;DHT22;7592;51.088;13.732;2023-04-06T12:25:58;16.40;43.80
14993;DHT22;7592;51.088;13.732;2023-04-06T12:30:50;16.40;43.70
14993;DHT22;7592;51.088;13.732;2023-04-06T12:35:43;15.30;44.60
14993;DHT22;7592;51.088;13.732;2023-04-06T12:40:37;15.00;45.90
14993;DHT22;7592;51.088;13.732;2023-04-06T12:45:31;15.00;45.80
14993;DHT22;7592;51.088;13.732;2023-04-06T12:50:23;14.90;46.20
14993;DHT22;7592;51.088;13.732;2023-04-06T12:55:15;15.30;46.40
14993;DHT22;7592;51.088;13.732;2023-04-06T13:00:08;15.80;46.30
14993;DHT22;7592;51.088;13.732;2023-04-06T13:05:02;16.10;45.70
14993;DHT22;7592;51.088;13.732;2023-04-06T13:09:54;16.20;45.40
14993;DHT22;7592;51.088;13.732;2023-04-06T13:14:47;15.50;45.50
14993;DHT22;7592;51.088;13.732;2023-04-06T13:19:43;15.60;46.20
14993;DHT22;7592;51.088;13.732;2023-04-06T13:24:35;15.20;46.60
14993;DHT22;7592;51.088;13.732;2023-04-06T13:29:27;14.80;47.00
14993;DHT22;7592;51.088;13.732;2023-04-06T13:34:19;14.90;47.80
14993;DHT22;7592;51.088;13.732;2023-04-06T13:39:11;15.20;47.20
14993;DHT22;7592;51.088;13.732;2023-04-06T13:44:03;14.60;47.40
14993;DHT22;7592;51.088;13.732;2023-04-06T13:48:55;14.40;48.30
14993;DHT22;7592;51.088;13.732;2023-04-06T13:53:47;14.00;48.70
14993;DHT22;7592;51.088;13.732;2023-04-06T13:58:43;13.80;49.30
14993;DHT22;7592;51.088;13.732;2023-04-06T14:03:36;13.70;49.90
14993;DHT22;7592;51.088;13.732;2023-04-06T14:08:28;13.30;50.30
14993;DHT22;7592;51.088;13.732;2023-04-06T14:13:20;13.00;50.60
14993;DHT22;7592;51.088;13.732;2023-04-06T14:18:12;13.00;50.90
14993;DHT22;7592;51.088;13.732;2023-04-06T14:23:05;12.90;51.60
14993;DHT22;7592;51.088;13.732;2023-04-06T14:27:57;12.50;51.60
14993;DHT22;7592;51.088;13.732;2023-04-06T14:32:49;12.20;51.70
14993;DHT22;7592;51.088;13.732;2023-04-06T14:37:41;12.40;52.40
14993;DHT22;7592;51.088;13.732;2023-04-06T14:42:35;12.50;51.70
14993;DHT22;7592;51.088;13.732;2023-04-06T14:47:27;12.50;50.90
14993;DHT22;7592;51.088;13.732;2023-04-06T14:52:19;12.40;50.90
14993;DHT22;7592;51.088;13.732;2023-04-06T14:57:11;12.40;51.40
14993;DHT22;7592;51.088;13.732;2023-04-06T15:02:03;12.20;51.70
14993;DHT22;7592;51.088;13.732;2023-04-06T15:06:56;12.20;52.70
14993;DHT22;7592;51.088;13.732;2023-04-06T15:11:48;11.90;53.20
14993;DHT22;7592;51.088;13.732;2023-04-06T15:16:40;11.80;53.20
14993;DHT22;7592;51.088;13.732;2023-04-06T15:21:32;11.60;53.70
14993;DHT22;7592;51.088;13.732;2023-04-06T15:26:24;11.70;54.00
14993;DHT22;7592;51.088;13.732;2023-04-06T15:31:19;11.70;54.20
14993;DHT22;7592;51.088;13.732;2023-04-06T15:36:28;11.80;54.10
14993;DHT22;7592;51.088;13.732;2023-04-06T15:41:23;11.90;53.90
14993;DHT22;7592;51.088;13.732;2023-04-06T15:46:18;11.90;54.30
14993;DHT22;7592;51.088;13.732;2023-04-06T15:51:10;11.70;53.50
14993;DHT22;7592;51.088;13.732;2023-04-06T15:56:03;11.60;53.10
14993;DHT22;7592;51.088;13.732;2023-04-06T16:00:56;11.60;53.30
14993;DHT22;7592;51.088;13.732;2023-04-06T16:05:48;11.50;53.30
14993;DHT22;7592;51.088;13.732;2023-04-06T16:10:44;11.40;53.70
14993;DHT22;7592;51.088;13.732;2023-04-06T16:15:37;11.20;53.50
14993;DHT22;7592;51.088;13.732;2023-04-06T16:20:29;11.20;54.00
14993;DHT22;7592;51.088;13.732;2023-04-06T16:25:22;11.10;54.90
14993;DHT22;7592;51.088;13.732;2023-04-06T16:30:15;11.00;55.20
14993;DHT22;7592;51.088;13.732;2023-04-06T16:35:07;10.90;54.40
14993;DHT22;7592;51.088;13.732;2023-04-06T16:40:00;10.80;55.00
14993;DHT22;7592;51.088;13.732;2023-04-06T16:44:52;10.60;55.70
14993;DHT22;7592;51.088;13.732;2023-04-06T16:49:45;10.50;55.40
14993;DHT22;7592;51.088;13.732;2023-04-06T16:54:37;10.40;55.60
14993;DHT22;7592;51.088;13.732;2023-04-06T16:59:29;10.40;55.70
14993;DHT22;7592;51.088;13.732;2023-04-06T17:04:22;10.40;55.90
14993;DHT22;7592;51.088;13.732;2023-04-06T17:09:14;10.30;56.30
14993;DHT22;7592;51.088;13.732;2023-04-06T17:14:07;10.20;56.80
14993;DHT22;7592;51.088;13.732;2023-04-06T17:19:00;10.10;57.20
14993;DHT22;7592;51.088;13.732;2023-04-06T17:23:52;10.00;57.60
14993;DHT22;7592;51.088;13.732;2023-04-06T17:28:45;9.70;58.30
14993;DHT22;7592;51.088;13.732;2023-04-06T17:33:40;9.80;58.10
14993;DHT22;7592;51.088;13.732;2023-04-06T17:38:32;9.60;58.30
14993;DHT22;7592;51.088;13.732;2023-04-06T17:43:24;9.50;58.40
14993;DHT22;7592;51.088;13.732;2023-04-06T17:48:17;9.30;58.90
14993;DHT22;7592;51.088;13.732;2023-04-06T17:53:09;9.10;59.50
14993;DHT22;7592;51.088;13.732;2023-04-06T17:58:01;8.70;60.10
14993;DHT22;7592;51.088;13.732;2023-04-06T18:02:54;8.60;61.20
14993;DHT22;7592;51.088;13.732;2023-04-06T18:07:47;8.30;62.30
14993;DHT22;7592;51.088;13.732;2023-04-06T18:12:39;8.30;62.10
14993;DHT22;7592;51.088;13.732;2023-04-06T18:17:31;8.20;62.10
14993;DHT22;7592;51.088;13.732;2023-04-06T18:22:23;7.90;64.80
14993;DHT22;7592;51.088;13.732;2023-04-06T18:27:16;7.60;66.70
14993;DHT22;7592;51.088;13.732;2023-04-06T18:32:10;7.50;68.60
14993;DHT22;7592;51.088;13.732;2023-04-06T18:37:02;7.30;68.90
14993;DHT22;7592;51.088;13.732;2023-04-06T18:41:55;7.30;68.60
14993;DHT22;7592;51.088;13.732;2023-04-06T18:46:47;7.20;68.90
14993;DHT22;7592;51.088;13.732;2023-04-06T18:51:39;7.10;69.40
14993;DHT22;7592;51.088;13.732;2023-04-06T18:56:34;7.00;71.10
14993;DHT22;7592;51.088;13.732;2023-04-06T19:01:29;6.70;72.70
14993;DHT22;7592;51.088;13.732;2023-04-06T19:06:22;6.50;73.80
14993;DHT22;7592;51.088;13.732;2023-04-06T19:11:14;6.40;75.40
14993;DHT22;7592;51.088;13.732;2023-04-06T19:16:10;6.20;76.70
14993;DHT22;7592;51.088;13.732;2023-04-06T19:21:03;6.10;77.00
14993;DHT22;7592;51.088;13.732;2023-04-06T19:25:55;5.90;78.50
14993;DHT22;7592;51.088;13.732;2023-04-06T19:30:47;5.90;81.60
14993;DHT22;7592;51.088;13.732;2023-04-06T19:35:41;5.80;82.80
14993;DHT22;7592;51.088;13.732;2023-04-06T19:40:33;5.70;83.90
14993;DHT22;7592;51.088;13.732;2023-04-06T19:45:25;5.50;85.20
14993;DHT22;7592;51.088;13.732;2023-04-06T19:50:17;5.30;87.40
14993;DHT22;7592;51.088;13.732;2023-04-06T19:55:09;5.20;89.50
14993;DHT22;7592;51.088;13.732;2023-04-06T20:00:02;5.10;90.80
14993;DHT22;7592;51.088;13.732;2023-04-06T20:05:00;5.00;91.90
14993;DHT22;7592;51.088;13.732;2023-04-06T20:09:52;5.00;92.80
14993;DHT22;7592;51.088;13.732;2023-04-06T20:14:44;4.90;94.00
14993;DHT22;7592;51.088;13.732;2023-04-06T20:19:36;4.90;95.20
14993;DHT22;7592;51.088;13.732;2023-04-06T20:24:29;5.00;96.80
14993;DHT22;7592;51.088;13.732;2023-04-06T20:29:23;4.80;98.70
14993;DHT22;7592;51.088;13.732;2023-04-06T20:34:15;4.60;99.90
14993;DHT22;7592;51.088;13.732;2023-04-06T20:39:08;4.50;99.90
14993;DHT22;7592;51.088;13.732;2023-04-06T20:44:00;4.50;99.90
14993;DHT22;7592;51.088;13.732;2023-04-06T20:48:52;4.40;99.90
14993;DHT22;7592;51.088;13.732;2023-04-06T20:53:44;4.20;99.90
14993;DHT22;7592;51.088;13.732;2023-04-06T20:58:37;4.10;99.90
14993;DHT22;7592;51.088;13.732;2023-04-06T21:03:29;4.00;99.90
14993;DHT22;7592;51.088;13.732;2023-04-06T21:08:22;4.00;99.90
14993;DHT22;7592;51.088;13.732;2023-04-06T21:13:15;3.90;99.90
14993;DHT22;7592;51.088;13.732;2023-04-06T21:18:07;3.90;99.90
14993;DHT22;7592;51.088;13.732;2023-04-06T21:23:00;3.80;99.90
14993;DHT22;7592;51.088;13.732;2023-04-06T21:27:52;3.70;99.90
14993;DHT22;7592;51.088;13.732;2023-04-06T21:32:44;3.70;99.90
14993;DHT22;7592;51.088;13.732;2023-04-06T21:37:36;3.70;99.90
14993;DHT22;7592;51.088;13.732;2023-04-06T21:42:28;3.60;99.90
14993;DHT22;7592;51.088;13.732;2023-04-06T21:47:20;3.60;99.90
14993;DHT22;7592;51.088;13.732;2023-04-06T21:52:12;3.50;99.90
14993;DHT22;7592;51.088;13.732;2023-04-06T21:57:04;3.40;99.90
14993;DHT22;7592;51.088;13.732;2023-04-06T22:01:56;3.40;99.90
14993;DHT22;7592;51.088;13.732;2023-04-06T22:06:49;3.40;99.90
14993;DHT22;7592;51.088;13.732;2023-04-06T22:11:41;3.30;99.90
14993;DHT22;7592;51.088;13.732;2023-04-06T22:16:34;3.20;99.90
14993;DHT22;7592;51.088;13.732;2023-04-06T22:21:26;3.10;99.90
14993;DHT22;7592;51.088;13.732;2023-04-06T22:26:18;3.20;99.90
14993;DHT22;7592;51.088;13.732;2023-04-06T22:31:11;3.10;99.90
14993;DHT22;7592;51.088;13.732;2023-04-06T22:36:04;3.00;99.90
14993;DHT22;7592;51.088;13.732;2023-04-06T22:40:57;3.00;99.90
14993;DHT22;7592;51.088;13.732;2023-04-06T22:45:50;3.00;99.90
14993;DHT22;7592;51.088;13.732;2023-04-06T22:50:43;3.00;99.90
14993;DHT22;7592;51.088;13.732;2023-04-06T22:55:38;3.00;99.90
14993;DHT22;7592;51.088;13.732;2023-04-06T23:00:32;3.20;99.90
14993;DHT22;7592;51.088;13.732;2023-04-06T23:05:24;3.20;99.90
14993;DHT22;7592;51.088;13.732;2023-04-06T23:10:17;3.30;99.90
14993;DHT22;7592;51.088;13.732;2023-04-06T23:15:11;3.30;99.90
14993;DHT22;7592;51.088;13.732;2023-04-06T23:20:03;3.20;99.90
14993;DHT22;7592;51.088;13.732;2023-04-06T23:24:55;3.30;99.90
14993;DHT22;7592;51.088;13.732;2023-04-06T23:29:47;3.30;99.90
14993;DHT22;7592;51.088;13.732;2023-04-06T23:34:39;3.30;99.90
14993;DHT22;7592;51.088;13.732;2023-04-06T23:39:32;3.20;99.90
14993;DHT22;7592;51.088;13.732;2023-04-06T23:44:27;3.20;99.90
14993;DHT22;7592;51.088;13.732;2023-04-06T23:49:19;3.30;99.90
14993;DHT22;7592;51.088;13.732;2023-04-06T23:54:11;3.20;99.90
14993;DHT22;7592;51.088;13.732;2023-04-06T23:59:03;3.10;99.90
